Hovedside
METAR-TAF:

METAR-TAF

Lufthavner :

Haugesund lufthavn. Karmøy

Haugesund, Norge

breddegrad: 59-21N, lengdegrad: 005-13E, høyde over havet: 2 m

Gjeldene værobservasjon

Denne rapporten ble laget for 42 minutter siden, klokken 13:50 UTC
Vind 7 kt fra Vest-nordvest
Temperatur 18°C
Luftfuktighet 73%
Trykk 1016 hPa
Sikt 10 km eller mer
Få skyer i en høyde av 2700 ft
Spredte skyer i en høyde av 6600 ft

METAR: ENHD 181350Z 29007KT 9999 FEW027 SCT066 18/13 Q1016

Tid: 16:32 (14:32 UTC)

Varsel

Denne rapporten ble laget for 3 timer og 32 minutter siden, klokken 11:00 UTC
Varsel gyldig fra 18. klokken 12 UTC til 18. klokken 21 UTC
Vind 8 kt fra Vest-nordvest
Sikt 10 km eller mer
Få skyer i en høyde av 700 ft
Brutte skyer i en høyde av 1800 ft

TAF: ENHD 181100Z 1812/1821 30008KT 9999 FEW007 BKN018

Værobservasjoner og værvarsel for over 4000 flyplasser (METAR- og TAF-rapporter).

Tilgjengelige stasjoner er representert av de røde og gule prikkene på kartet.

Hold musepekeren over prikken for å se navnet på stasjonen.

Klikk så for å se værobservasjoner og -varsler.

For å forandre kartet kan du klikke på den grønne knappen med svart kryss for å zoome inn, på den grønne knappen med strek for å zoome ut, eller på de grønne pilene for å se tilstøtende kart.


METAR-TAF: